sensor_id;sensor_type;location;lat;lon;timestamp;P1;durP1;ratioP1;P2;durP2;ratioP2
77234;SDS011;66253;50.526;14.974;2024-01-06T00:00:24;18.00;;;8.20;;
77234;SDS011;66253;50.526;14.974;2024-01-06T00:02:52;22.20;;;8.80;;
77234;SDS011;66253;50.526;14.974;2024-01-06T00:05:20;21.20;;;9.40;;
77234;SDS011;66253;50.526;14.974;2024-01-06T00:07:49;20.50;;;9.40;;
77234;SDS011;66253;50.526;14.974;2024-01-06T00:10:17;20.80;;;9.60;;
77234;SDS011;66253;50.526;14.974;2024-01-06T00:12:45;21.10;;;9.00;;
77234;SDS011;66253;50.526;14.974;2024-01-06T00:15:14;21.60;;;9.10;;
77234;SDS011;66253;50.526;14.974;2024-01-06T00:17:42;24.90;;;10.80;;
77234;SDS011;66253;50.526;14.974;2024-01-06T00:20:11;23.20;;;11.80;;
77234;SDS011;66253;50.526;14.974;2024-01-06T00:22:39;21.10;;;9.80;;
77234;SDS011;66253;50.526;14.974;2024-01-06T00:25:08;16.90;;;8.50;;
77234;SDS011;66253;50.526;14.974;2024-01-06T00:27:36;19.10;;;9.00;;
77234;SDS011;66253;50.526;14.974;2024-01-06T00:30:05;21.20;;;10.10;;
77234;SDS011;66253;50.526;14.974;2024-01-06T00:32:34;19.00;;;8.80;;
77234;SDS011;66253;50.526;14.974;2024-01-06T00:35:03;19.30;;;8.40;;
77234;SDS011;66253;50.526;14.974;2024-01-06T00:37:32;14.80;;;8.10;;
77234;SDS011;66253;50.526;14.974;2024-01-06T00:40:00;17.20;;;8.10;;
77234;SDS011;66253;50.526;14.974;2024-01-06T00:42:29;18.50;;;8.50;;
77234;SDS011;66253;50.526;14.974;2024-01-06T00:44:57;22.40;;;10.10;;
77234;SDS011;66253;50.526;14.974;2024-01-06T00:47:26;17.30;;;8.80;;
77234;SDS011;66253;50.526;14.974;2024-01-06T00:49:54;16.30;;;8.20;;
77234;SDS011;66253;50.526;14.974;2024-01-06T00:52:22;15.60;;;7.70;;
77234;SDS011;66253;50.526;14.974;2024-01-06T00:54:50;17.80;;;8.60;;
77234;SDS011;66253;50.526;14.974;2024-01-06T00:57:18;16.30;;;7.50;;
77234;SDS011;66253;50.526;14.974;2024-01-06T00:59:47;16.80;;;8.00;;
77234;SDS011;66253;50.526;14.974;2024-01-06T01:02:15;18.50;;;7.20;;
77234;SDS011;66253;50.526;14.974;2024-01-06T01:04:45;15.20;;;6.60;;
77234;SDS011;66253;50.526;14.974;2024-01-06T01:07:16;14.60;;;6.40;;
77234;SDS011;66253;50.526;14.974;2024-01-06T01:09:44;15.50;;;8.10;;
77234;SDS011;66253;50.526;14.974;2024-01-06T01:12:12;17.50;;;8.00;;
77234;SDS011;66253;50.526;14.974;2024-01-06T01:14:41;17.00;;;7.90;;
77234;SDS011;66253;50.526;14.974;2024-01-06T01:17:09;22.30;;;8.80;;
77234;SDS011;66253;50.526;14.974;2024-01-06T01:19:37;20.50;;;8.50;;
77234;SDS011;66253;50.526;14.974;2024-01-06T01:22:05;25.20;;;11.00;;
77234;SDS011;66253;50.526;14.974;2024-01-06T01:24:34;35.20;;;13.10;;
77234;SDS011;66253;50.526;14.974;2024-01-06T01:27:02;33.30;;;13.90;;
77234;SDS011;66253;50.526;14.974;2024-01-06T01:29:31;35.70;;;14.50;;
77234;SDS011;66253;50.526;14.974;2024-01-06T01:31:59;25.90;;;10.20;;
77234;SDS011;66253;50.526;14.974;2024-01-06T01:34:27;23.90;;;10.10;;
77234;SDS011;66253;50.526;14.974;2024-01-06T01:36:56;19.70;;;9.40;;
77234;SDS011;66253;50.526;14.974;2024-01-06T01:39:24;19.50;;;9.20;;
77234;SDS011;66253;50.526;14.974;2024-01-06T01:41:52;20.50;;;8.90;;
77234;SDS011;66253;50.526;14.974;2024-01-06T01:44:20;19.20;;;9.70;;
77234;SDS011;66253;50.526;14.974;2024-01-06T01:46:48;18.30;;;8.40;;
77234;SDS011;66253;50.526;14.974;2024-01-06T01:49:19;20.30;;;8.60;;
77234;SDS011;66253;50.526;14.974;2024-01-06T01:51:47;18.50;;;8.70;;
77234;SDS011;66253;50.526;14.974;2024-01-06T01:54:17;17.90;;;8.40;;
77234;SDS011;66253;50.526;14.974;2024-01-06T01:56:45;17.00;;;8.10;;
77234;SDS011;66253;50.526;14.974;2024-01-06T01:59:13;15.80;;;7.70;;
77234;SDS011;66253;50.526;14.974;2024-01-06T02:01:44;16.80;;;7.40;;
77234;SDS011;66253;50.526;14.974;2024-01-06T02:04:13;15.00;;;6.90;;
77234;SDS011;66253;50.526;14.974;2024-01-06T02:06:41;15.80;;;7.60;;
77234;SDS011;66253;50.526;14.974;2024-01-06T02:09:09;17.70;;;8.10;;
77234;SDS011;66253;50.526;14.974;2024-01-06T02:11:38;17.00;;;7.30;;
77234;SDS011;66253;50.526;14.974;2024-01-06T02:14:06;15.60;;;7.60;;
77234;SDS011;66253;50.526;14.974;2024-01-06T02:16:34;15.00;;;7.70;;
77234;SDS011;66253;50.526;14.974;2024-01-06T02:19:05;16.40;;;7.80;;
77234;SDS011;66253;50.526;14.974;2024-01-06T02:21:37;15.90;;;7.30;;
77234;SDS011;66253;50.526;14.974;2024-01-06T02:24:08;16.30;;;7.70;;
77234;SDS011;66253;50.526;14.974;2024-01-06T02:26:36;14.50;;;7.10;;
77234;SDS011;66253;50.526;14.974;2024-01-06T02:29:05;13.30;;;6.50;;
77234;SDS011;66253;50.526;14.974;2024-01-06T02:31:33;16.40;;;6.80;;
77234;SDS011;66253;50.526;14.974;2024-01-06T02:34:01;13.90;;;6.70;;
77234;SDS011;66253;50.526;14.974;2024-01-06T02:36:30;14.60;;;6.90;;
77234;SDS011;66253;50.526;14.974;2024-01-06T02:38:58;14.00;;;7.00;;
77234;SDS011;66253;50.526;14.974;2024-01-06T02:41:26;12.80;;;5.90;;
77234;SDS011;66253;50.526;14.974;2024-01-06T02:43:55;14.10;;;6.40;;
77234;SDS011;66253;50.526;14.974;2024-01-06T02:46:23;14.40;;;6.20;;
77234;SDS011;66253;50.526;14.974;2024-01-06T02:48:52;14.20;;;6.30;;
77234;SDS011;66253;50.526;14.974;2024-01-06T02:51:20;14.30;;;5.90;;
77234;SDS011;66253;50.526;14.974;2024-01-06T02:53:48;14.50;;;6.20;;
77234;SDS011;66253;50.526;14.974;2024-01-06T02:56:16;14.30;;;5.40;;
77234;SDS011;66253;50.526;14.974;2024-01-06T02:58:44;13.20;;;6.20;;
77234;SDS011;66253;50.526;14.974;2024-01-06T03:01:13;15.40;;;6.60;;
77234;SDS011;66253;50.526;14.974;2024-01-06T03:03:41;13.30;;;6.20;;
77234;SDS011;66253;50.526;14.974;2024-01-06T03:06:09;12.90;;;5.80;;
77234;SDS011;66253;50.526;14.974;2024-01-06T03:08:37;13.30;;;6.40;;
77234;SDS011;66253;50.526;14.974;2024-01-06T03:11:08;19.00;;;7.30;;
77234;SDS011;66253;50.526;14.974;2024-01-06T03:13:38;15.70;;;7.20;;
77234;SDS011;66253;50.526;14.974;2024-01-06T03:16:07;16.10;;;6.70;;
77234;SDS011;66253;50.526;14.974;2024-01-06T03:18:37;20.10;;;8.80;;
77234;SDS011;66253;50.526;14.974;2024-01-06T03:21:15;23.80;;;8.50;;
77234;SDS011;66253;50.526;14.974;2024-01-06T03:23:47;24.50;;;9.50;;
77234;SDS011;66253;50.526;14.974;2024-01-06T03:26:16;25.10;;;10.30;;
77234;SDS011;66253;50.526;14.974;2024-01-06T03:28:44;24.40;;;9.40;;
77234;SDS011;66253;50.526;14.974;2024-01-06T03:31:14;18.10;;;7.50;;
77234;SDS011;66253;50.526;14.974;2024-01-06T03:33:43;29.00;;;10.40;;
77234;SDS011;66253;50.526;14.974;2024-01-06T03:36:13;40.60;;;16.60;;
77234;SDS011;66253;50.526;14.974;2024-01-06T03:38:41;43.80;;;16.10;;
77234;SDS011;66253;50.526;14.974;2024-01-06T03:41:10;34.00;;;13.00;;
77234;SDS011;66253;50.526;14.974;2024-01-06T03:43:38;23.70;;;10.60;;
77234;SDS011;66253;50.526;14.974;2024-01-06T03:46:06;21.50;;;9.60;;
77234;SDS011;66253;50.526;14.974;2024-01-06T03:48:34;18.10;;;8.60;;
77234;SDS011;66253;50.526;14.974;2024-01-06T03:51:03;19.00;;;8.90;;
77234;SDS011;66253;50.526;14.974;2024-01-06T03:53:32;17.30;;;7.40;;
77234;SDS011;66253;50.526;14.974;2024-01-06T03:56:01;17.30;;;7.90;;
77234;SDS011;66253;50.526;14.974;2024-01-06T03:58:30;16.00;;;7.30;;
77234;SDS011;66253;50.526;14.974;2024-01-06T04:00:58;16.30;;;7.70;;
77234;SDS011;66253;50.526;14.974;2024-01-06T04:03:27;16.50;;;7.20;;
77234;SDS011;66253;50.526;14.974;2024-01-06T04:05:55;14.40;;;6.60;;
77234;SDS011;66253;50.526;14.974;2024-01-06T04:08:23;14.80;;;6.80;;
77234;SDS011;66253;50.526;14.974;2024-01-06T04:10:51;16.40;;;6.10;;
77234;SDS011;66253;50.526;14.974;2024-01-06T04:13:20;14.70;;;6.90;;
77234;SDS011;66253;50.526;14.974;2024-01-06T04:15:48;13.90;;;6.50;;
77234;SDS011;66253;50.526;14.974;2024-01-06T04:18:16;20.60;;;8.90;;
77234;SDS011;66253;50.526;14.974;2024-01-06T04:20:45;26.60;;;10.80;;
77234;SDS011;66253;50.526;14.974;2024-01-06T04:23:13;23.80;;;10.50;;
77234;SDS011;66253;50.526;14.974;2024-01-06T04:25:41;27.10;;;9.40;;
77234;SDS011;66253;50.526;14.974;2024-01-06T04:28:09;20.70;;;8.40;;
77234;SDS011;66253;50.526;14.974;2024-01-06T04:30:38;16.00;;;7.00;;
77234;SDS011;66253;50.526;14.974;2024-01-06T04:33:06;15.80;;;7.50;;
77234;SDS011;66253;50.526;14.974;2024-01-06T04:35:34;14.20;;;6.50;;
77234;SDS011;66253;50.526;14.974;2024-01-06T04:38:02;12.10;;;6.20;;
77234;SDS011;66253;50.526;14.974;2024-01-06T04:40:31;14.40;;;6.40;;
77234;SDS011;66253;50.526;14.974;2024-01-06T04:42:59;11.20;;;6.10;;
77234;SDS011;66253;50.526;14.974;2024-01-06T04:45:28;13.20;;;6.40;;
77234;SDS011;66253;50.526;14.974;2024-01-06T04:47:57;13.90;;;6.30;;
77234;SDS011;66253;50.526;14.974;2024-01-06T04:50:25;13.60;;;6.30;;
77234;SDS011;66253;50.526;14.974;2024-01-06T04:52:53;12.40;;;6.60;;
77234;SDS011;66253;50.526;14.974;2024-01-06T04:55:21;13.20;;;6.00;;
77234;SDS011;66253;50.526;14.974;2024-01-06T04:57:49;15.90;;;6.80;;
77234;SDS011;66253;50.526;14.974;2024-01-06T05:00:18;11.70;;;5.50;;
77234;SDS011;66253;50.526;14.974;2024-01-06T05:02:46;13.70;;;6.40;;
77234;SDS011;66253;50.526;14.974;2024-01-06T05:05:14;14.60;;;6.30;;
77234;SDS011;66253;50.526;14.974;2024-01-06T05:07:43;12.70;;;5.50;;
77234;SDS011;66253;50.526;14.974;2024-01-06T05:10:11;12.30;;;6.40;;
77234;SDS011;66253;50.526;14.974;2024-01-06T05:12:39;14.30;;;6.50;;
77234;SDS011;66253;50.526;14.974;2024-01-06T05:15:08;13.70;;;5.80;;
77234;SDS011;66253;50.526;14.974;2024-01-06T05:17:38;15.10;;;6.90;;
77234;SDS011;66253;50.526;14.974;2024-01-06T05:20:07;13.40;;;5.80;;
77234;SDS011;66253;50.526;14.974;2024-01-06T05:22:36;12.80;;;5.80;;
77234;SDS011;66253;50.526;14.974;2024-01-06T05:25:04;17.80;;;7.30;;
77234;SDS011;66253;50.526;14.974;2024-01-06T05:27:33;16.70;;;7.80;;
77234;SDS011;66253;50.526;14.974;2024-01-06T05:30:01;16.40;;;7.30;;
77234;SDS011;66253;50.526;14.974;2024-01-06T05:32:31;12.90;;;6.90;;
77234;SDS011;66253;50.526;14.974;2024-01-06T05:35:03;13.00;;;6.30;;
77234;SDS011;66253;50.526;14.974;2024-01-06T05:37:32;16.80;;;6.50;;
77234;SDS011;66253;50.526;14.974;2024-01-06T05:40:00;16.40;;;6.20;;
77234;SDS011;66253;50.526;14.974;2024-01-06T05:42:30;14.00;;;6.10;;
77234;SDS011;66253;50.526;14.974;2024-01-06T05:44:58;15.60;;;7.00;;
77234;SDS011;66253;50.526;14.974;2024-01-06T05:47:26;15.00;;;6.30;;
77234;SDS011;66253;50.526;14.974;2024-01-06T05:49:54;15.50;;;5.60;;
77234;SDS011;66253;50.526;14.974;2024-01-06T05:52:23;13.50;;;5.90;;
77234;SDS011;66253;50.526;14.974;2024-01-06T05:54:51;12.70;;;5.60;;
77234;SDS011;66253;50.526;14.974;2024-01-06T05:57:19;16.20;;;6.10;;
77234;SDS011;66253;50.526;14.974;2024-01-06T05:59:48;13.20;;;6.00;;
77234;SDS011;66253;50.526;14.974;2024-01-06T06:02:16;17.20;;;6.80;;
77234;SDS011;66253;50.526;14.974;2024-01-06T06:04:44;12.50;;;5.60;;
77234;SDS011;66253;50.526;14.974;2024-01-06T06:07:12;14.30;;;6.60;;
77234;SDS011;66253;50.526;14.974;2024-01-06T06:09:41;14.60;;;6.60;;
77234;SDS011;66253;50.526;14.974;2024-01-06T06:12:09;13.50;;;6.20;;
77234;SDS011;66253;50.526;14.974;2024-01-06T06:14:37;15.30;;;6.30;;
77234;SDS011;66253;50.526;14.974;2024-01-06T06:17:05;12.90;;;5.90;;
77234;SDS011;66253;50.526;14.974;2024-01-06T06:19:33;14.50;;;6.50;;
77234;SDS011;66253;50.526;14.974;2024-01-06T06:22:02;13.30;;;6.60;;
77234;SDS011;66253;50.526;14.974;2024-01-06T06:24:30;13.60;;;7.00;;
77234;SDS011;66253;50.526;14.974;2024-01-06T06:26:59;13.80;;;7.20;;
77234;SDS011;66253;50.526;14.974;2024-01-06T06:29:27;13.80;;;6.50;;
77234;SDS011;66253;50.526;14.974;2024-01-06T06:31:55;13.40;;;7.10;;
77234;SDS011;66253;50.526;14.974;2024-01-06T06:34:23;14.70;;;6.10;;
77234;SDS011;66253;50.526;14.974;2024-01-06T06:36:52;14.70;;;5.80;;
77234;SDS011;66253;50.526;14.974;2024-01-06T06:39:20;12.10;;;5.20;;
77234;SDS011;66253;50.526;14.974;2024-01-06T06:41:48;13.50;;;6.00;;
77234;SDS011;66253;50.526;14.974;2024-01-06T06:44:17;11.70;;;5.40;;
77234;SDS011;66253;50.526;14.974;2024-01-06T06:46:46;14.20;;;6.90;;
77234;SDS011;66253;50.526;14.974;2024-01-06T06:49:14;15.70;;;7.10;;
77234;SDS011;66253;50.526;14.974;2024-01-06T06:51:42;13.50;;;6.20;;
77234;SDS011;66253;50.526;14.974;2024-01-06T06:54:11;14.00;;;5.70;;
77234;SDS011;66253;50.526;14.974;2024-01-06T06:56:39;13.10;;;5.90;;
77234;SDS011;66253;50.526;14.974;2024-01-06T06:59:07;12.50;;;6.00;;
77234;SDS011;66253;50.526;14.974;2024-01-06T07:01:36;13.00;;;7.20;;
77234;SDS011;66253;50.526;14.974;2024-01-06T07:04:05;12.50;;;6.50;;
77234;SDS011;66253;50.526;14.974;2024-01-06T07:06:34;11.70;;;5.90;;
77234;SDS011;66253;50.526;14.974;2024-01-06T07:09:02;16.40;;;6.80;;
77234;SDS011;66253;50.526;14.974;2024-01-06T07:11:30;14.20;;;6.70;;
77234;SDS011;66253;50.526;14.974;2024-01-06T07:13:58;11.90;;;5.50;;
77234;SDS011;66253;50.526;14.974;2024-01-06T07:16:27;14.50;;;7.20;;
77234;SDS011;66253;50.526;14.974;2024-01-06T07:18:55;11.00;;;6.30;;
77234;SDS011;66253;50.526;14.974;2024-01-06T07:21:23;12.90;;;6.30;;
77234;SDS011;66253;50.526;14.974;2024-01-06T07:23:52;14.30;;;6.70;;
77234;SDS011;66253;50.526;14.974;2024-01-06T07:26:20;14.70;;;6.20;;
77234;SDS011;66253;50.526;14.974;2024-01-06T07:28:48;15.40;;;8.40;;
77234;SDS011;66253;50.526;14.974;2024-01-06T07:31:17;19.20;;;9.20;;
77234;SDS011;66253;50.526;14.974;2024-01-06T07:33:46;18.20;;;9.60;;
77234;SDS011;66253;50.526;14.974;2024-01-06T07:36:15;19.70;;;10.10;;
77234;SDS011;66253;50.526;14.974;2024-01-06T07:38:43;14.80;;;8.30;;
77234;SDS011;66253;50.526;14.974;2024-01-06T07:41:11;13.50;;;6.80;;
77234;SDS011;66253;50.526;14.974;2024-01-06T07:43:40;14.60;;;6.80;;
77234;SDS011;66253;50.526;14.974;2024-01-06T07:46:08;11.30;;;5.80;;
77234;SDS011;66253;50.526;14.974;2024-01-06T07:48:36;13.80;;;6.70;;
77234;SDS011;66253;50.526;14.974;2024-01-06T07:51:05;11.90;;;6.30;;
77234;SDS011;66253;50.526;14.974;2024-01-06T07:53:33;12.60;;;6.50;;
77234;SDS011;66253;50.526;14.974;2024-01-06T07:56:01;15.10;;;7.60;;
77234;SDS011;66253;50.526;14.974;2024-01-06T07:58:30;60.10;;;24.90;;
77234;SDS011;66253;50.526;14.974;2024-01-06T08:00:58;42.80;;;18.60;;
77234;SDS011;66253;50.526;14.974;2024-01-06T08:03:26;28.90;;;14.20;;
77234;SDS011;66253;50.526;14.974;2024-01-06T08:05:55;19.20;;;10.50;;
77234;SDS011;66253;50.526;14.974;2024-01-06T08:08:23;20.80;;;9.90;;
77234;SDS011;66253;50.526;14.974;2024-01-06T08:10:52;23.60;;;11.60;;
77234;SDS011;66253;50.526;14.974;2024-01-06T08:13:21;21.90;;;11.00;;
77234;SDS011;66253;50.526;14.974;2024-01-06T08:15:50;22.40;;;11.90;;
77234;SDS011;66253;50.526;14.974;2024-01-06T08:18:18;21.80;;;10.60;;
77234;SDS011;66253;50.526;14.974;2024-01-06T08:20:47;20.50;;;10.10;;
77234;SDS011;66253;50.526;14.974;2024-01-06T08:23:15;21.60;;;11.30;;
77234;SDS011;66253;50.526;14.974;2024-01-06T08:25:43;17.50;;;9.00;;
77234;SDS011;66253;50.526;14.974;2024-01-06T08:28:13;16.60;;;8.70;;
77234;SDS011;66253;50.526;14.974;2024-01-06T08:30:41;14.80;;;6.60;;
77234;SDS011;66253;50.526;14.974;2024-01-06T08:33:10;22.50;;;9.50;;
77234;SDS011;66253;50.526;14.974;2024-01-06T08:35:39;24.10;;;9.50;;
77234;SDS011;66253;50.526;14.974;2024-01-06T08:38:07;22.30;;;10.00;;
77234;SDS011;66253;50.526;14.974;2024-01-06T08:40:36;20.00;;;9.20;;
77234;SDS011;66253;50.526;14.974;2024-01-06T08:43:04;20.60;;;7.40;;
77234;SDS011;66253;50.526;14.974;2024-01-06T08:45:32;14.30;;;7.20;;
77234;SDS011;66253;50.526;14.974;2024-01-06T08:48:01;12.80;;;6.00;;
77234;SDS011;66253;50.526;14.974;2024-01-06T08:50:32;12.60;;;6.10;;
77234;SDS011;66253;50.526;14.974;2024-01-06T08:53:01;13.00;;;6.00;;
77234;SDS011;66253;50.526;14.974;2024-01-06T08:55:29;13.50;;;5.80;;
77234;SDS011;66253;50.526;14.974;2024-01-06T08:57:57;14.20;;;6.10;;
77234;SDS011;66253;50.526;14.974;2024-01-06T09:00:26;13.70;;;6.90;;
77234;SDS011;66253;50.526;14.974;2024-01-06T09:02:54;15.80;;;7.00;;
77234;SDS011;66253;50.526;14.974;2024-01-06T09:05:23;13.50;;;6.00;;
77234;SDS011;66253;50.526;14.974;2024-01-06T09:07:51;13.90;;;6.10;;
77234;SDS011;66253;50.526;14.974;2024-01-06T09:10:20;16.20;;;8.60;;
77234;SDS011;66253;50.526;14.974;2024-01-06T09:12:49;12.00;;;5.90;;
77234;SDS011;66253;50.526;14.974;2024-01-06T09:15:17;17.30;;;7.70;;
77234;SDS011;66253;50.526;14.974;2024-01-06T09:17:45;15.50;;;7.60;;
77234;SDS011;66253;50.526;14.974;2024-01-06T09:20:14;15.60;;;7.70;;
77234;SDS011;66253;50.526;14.974;2024-01-06T09:22:42;13.10;;;6.60;;
77234;SDS011;66253;50.526;14.974;2024-01-06T09:25:10;16.00;;;7.30;;
77234;SDS011;66253;50.526;14.974;2024-01-06T09:27:38;18.00;;;8.20;;
77234;SDS011;66253;50.526;14.974;2024-01-06T09:30:08;16.60;;;7.60;;
77234;SDS011;66253;50.526;14.974;2024-01-06T09:32:37;15.70;;;7.80;;
77234;SDS011;66253;50.526;14.974;2024-01-06T09:35:06;16.10;;;7.60;;
77234;SDS011;66253;50.526;14.974;2024-01-06T09:37:34;15.50;;;7.50;;
77234;SDS011;66253;50.526;14.974;2024-01-06T09:40:03;19.50;;;8.60;;
77234;SDS011;66253;50.526;14.974;2024-01-06T09:42:34;15.70;;;8.00;;
77234;SDS011;66253;50.526;14.974;2024-01-06T09:45:02;15.40;;;6.90;;
77234;SDS011;66253;50.526;14.974;2024-01-06T09:47:32;15.30;;;7.10;;
77234;SDS011;66253;50.526;14.974;2024-01-06T09:50:02;15.40;;;6.00;;
77234;SDS011;66253;50.526;14.974;2024-01-06T09:52:32;14.70;;;8.30;;
77234;SDS011;66253;50.526;14.974;2024-01-06T09:55:06;14.00;;;6.20;;
77234;SDS011;66253;50.526;14.974;2024-01-06T09:57:37;12.80;;;5.50;;
77234;SDS011;66253;50.526;14.974;2024-01-06T10:00:09;12.00;;;6.00;;
77234;SDS011;66253;50.526;14.974;2024-01-06T10:02:39;13.60;;;6.50;;
77234;SDS011;66253;50.526;14.974;2024-01-06T10:05:10;12.60;;;5.90;;
77234;SDS011;66253;50.526;14.974;2024-01-06T10:07:39;30.50;;;16.90;;
77234;SDS011;66253;50.526;14.974;2024-01-06T10:12:37;14.60;;;7.40;;
77234;SDS011;66253;50.526;14.974;2024-01-06T10:17:34;16.30;;;6.50;;
77234;SDS011;66253;50.526;14.974;2024-01-06T10:22:35;15.30;;;6.30;;
77234;SDS011;66253;50.526;14.974;2024-01-06T10:25:05;15.60;;;7.40;;
77234;SDS011;66253;50.526;14.974;2024-01-06T10:30:01;12.20;;;6.90;;
77234;SDS011;66253;50.526;14.974;2024-01-06T10:32:32;27.00;;;9.50;;
77234;SDS011;66253;50.526;14.974;2024-01-06T10:35:01;26.90;;;13.30;;
77234;SDS011;66253;50.526;14.974;2024-01-06T10:37:29;35.70;;;13.90;;
77234;SDS011;66253;50.526;14.974;2024-01-06T10:40:11;23.80;;;10.20;;
77234;SDS011;66253;50.526;14.974;2024-01-06T10:42:41;18.60;;;9.30;;
77234;SDS011;66253;50.526;14.974;2024-01-06T10:45:11;21.00;;;8.90;;
77234;SDS011;66253;50.526;14.974;2024-01-06T10:47:41;22.20;;;9.80;;
77234;SDS011;66253;50.526;14.974;2024-01-06T10:50:10;21.00;;;9.40;;
77234;SDS011;66253;50.526;14.974;2024-01-06T10:52:40;18.30;;;8.80;;
77234;SDS011;66253;50.526;14.974;2024-01-06T10:55:09;18.60;;;8.20;;
77234;SDS011;66253;50.526;14.974;2024-01-06T10:57:39;15.80;;;6.70;;
77234;SDS011;66253;50.526;14.974;2024-01-06T11:00:12;18.60;;;7.90;;
77234;SDS011;66253;50.526;14.974;2024-01-06T11:02:41;16.10;;;7.20;;
77234;SDS011;66253;50.526;14.974;2024-01-06T11:05:10;14.20;;;6.80;;
77234;SDS011;66253;50.526;14.974;2024-01-06T11:07:39;18.40;;;8.40;;
77234;SDS011;66253;50.526;14.974;2024-01-06T11:10:10;17.20;;;8.30;;
77234;SDS011;66253;50.526;14.974;2024-01-06T11:12:41;14.70;;;6.80;;
77234;SDS011;66253;50.526;14.974;2024-01-06T11:15:10;12.10;;;6.40;;
77234;SDS011;66253;50.526;14.974;2024-01-06T11:18:00;11.90;;;5.70;;
77234;SDS011;66253;50.526;14.974;2024-01-06T11:20:29;13.80;;;6.50;;
77234;SDS011;66253;50.526;14.974;2024-01-06T11:22:57;14.90;;;6.80;;
77234;SDS011;66253;50.526;14.974;2024-01-06T11:25:45;14.70;;;7.50;;
77234;SDS011;66253;50.526;14.974;2024-01-06T11:28:16;16.10;;;9.00;;
77234;SDS011;66253;50.526;14.974;2024-01-06T11:30:47;18.80;;;8.70;;
77234;SDS011;66253;50.526;14.974;2024-01-06T11:33:33;21.20;;;9.30;;
77234;SDS011;66253;50.526;14.974;2024-01-06T11:36:09;16.70;;;8.90;;
77234;SDS011;66253;50.526;14.974;2024-01-06T11:38:40;19.30;;;9.70;;
77234;SDS011;66253;50.526;14.974;2024-01-06T11:41:11;18.50;;;9.30;;
77234;SDS011;66253;50.526;14.974;2024-01-06T11:44:14;17.50;;;8.80;;
77234;SDS011;66253;50.526;14.974;2024-01-06T11:46:46;19.10;;;8.90;;
77234;SDS011;66253;50.526;14.974;2024-01-06T11:49:17;17.30;;;8.70;;
77234;SDS011;66253;50.526;14.974;2024-01-06T11:51:52;18.00;;;9.70;;
77234;SDS011;66253;50.526;14.974;2024-01-06T11:54:21;18.90;;;10.10;;
77234;SDS011;66253;50.526;14.974;2024-01-06T11:56:50;15.20;;;8.40;;
77234;SDS011;66253;50.526;14.974;2024-01-06T11:59:18;16.90;;;8.00;;
77234;SDS011;66253;50.526;14.974;2024-01-06T12:01:46;16.50;;;7.80;;
77234;SDS011;66253;50.526;14.974;2024-01-06T12:04:15;17.20;;;8.80;;
77234;SDS011;66253;50.526;14.974;2024-01-06T12:06:43;15.10;;;8.20;;
77234;SDS011;66253;50.526;14.974;2024-01-06T12:09:12;15.10;;;7.20;;
77234;SDS011;66253;50.526;14.974;2024-01-06T12:11:43;16.30;;;8.50;;
77234;SDS011;66253;50.526;14.974;2024-01-06T12:14:11;18.80;;;8.50;;
77234;SDS011;66253;50.526;14.974;2024-01-06T12:16:40;14.30;;;8.10;;
77234;SDS011;66253;50.526;14.974;2024-01-06T12:19:08;16.00;;;8.10;;
77234;SDS011;66253;50.526;14.974;2024-01-06T12:21:36;19.90;;;9.40;;
77234;SDS011;66253;50.526;14.974;2024-01-06T12:24:14;18.50;;;10.10;;
77234;SDS011;66253;50.526;14.974;2024-01-06T12:26:44;15.20;;;8.70;;
77234;SDS011;66253;50.526;14.974;2024-01-06T12:29:13;20.10;;;9.20;;
77234;SDS011;66253;50.526;14.974;2024-01-06T12:31:41;18.10;;;8.60;;
77234;SDS011;66253;50.526;14.974;2024-01-06T12:34:10;16.70;;;8.90;;
77234;SDS011;66253;50.526;14.974;2024-01-06T12:36:39;21.00;;;11.30;;
77234;SDS011;66253;50.526;14.974;2024-01-06T12:39:11;22.40;;;11.50;;
77234;SDS011;66253;50.526;14.974;2024-01-06T12:41:40;22.30;;;11.00;;
77234;SDS011;66253;50.526;14.974;2024-01-06T12:44:09;19.20;;;9.60;;
77234;SDS011;66253;50.526;14.974;2024-01-06T12:46:37;20.30;;;9.70;;
77234;SDS011;66253;50.526;14.974;2024-01-06T12:49:05;22.40;;;10.90;;
77234;SDS011;66253;50.526;14.974;2024-01-06T12:51:37;22.80;;;10.00;;
77234;SDS011;66253;50.526;14.974;2024-01-06T12:54:05;21.10;;;11.00;;
77234;SDS011;66253;50.526;14.974;2024-01-06T12:56:34;21.90;;;11.20;;
77234;SDS011;66253;50.526;14.974;2024-01-06T12:59:03;21.10;;;10.80;;
77234;SDS011;66253;50.526;14.974;2024-01-06T13:01:31;21.60;;;12.00;;
77234;SDS011;66253;50.526;14.974;2024-01-06T13:03:59;19.40;;;10.50;;
77234;SDS011;66253;50.526;14.974;2024-01-06T13:06:28;23.50;;;11.30;;
77234;SDS011;66253;50.526;14.974;2024-01-06T13:08:56;18.60;;;9.80;;
77234;SDS011;66253;50.526;14.974;2024-01-06T13:11:24;23.10;;;11.30;;
77234;SDS011;66253;50.526;14.974;2024-01-06T13:13:53;26.00;;;13.20;;
77234;SDS011;66253;50.526;14.974;2024-01-06T13:16:21;24.20;;;12.80;;
77234;SDS011;66253;50.526;14.974;2024-01-06T13:18:49;23.80;;;13.00;;
77234;SDS011;66253;50.526;14.974;2024-01-06T13:21:18;26.60;;;16.70;;
77234;SDS011;66253;50.526;14.974;2024-01-06T13:23:46;25.60;;;14.00;;
77234;SDS011;66253;50.526;14.974;2024-01-06T13:26:15;26.00;;;14.30;;
77234;SDS011;66253;50.526;14.974;2024-01-06T13:28:43;23.60;;;14.80;;
77234;SDS011;66253;50.526;14.974;2024-01-06T13:31:11;21.30;;;12.20;;
77234;SDS011;66253;50.526;14.974;2024-01-06T13:33:40;20.00;;;8.80;;
77234;SDS011;66253;50.526;14.974;2024-01-06T13:36:08;21.80;;;12.60;;
77234;SDS011;66253;50.526;14.974;2024-01-06T13:38:37;26.00;;;12.40;;
77234;SDS011;66253;50.526;14.974;2024-01-06T13:41:05;92.80;;;31.70;;
77234;SDS011;66253;50.526;14.974;2024-01-06T13:43:36;64.80;;;24.50;;
77234;SDS011;66253;50.526;14.974;2024-01-06T13:46:05;61.10;;;24.00;;
77234;SDS011;66253;50.526;14.974;2024-01-06T13:48:33;41.80;;;18.40;;
77234;SDS011;66253;50.526;14.974;2024-01-06T13:51:02;37.70;;;18.70;;
77234;SDS011;66253;50.526;14.974;2024-01-06T13:53:30;37.70;;;19.90;;
77234;SDS011;66253;50.526;14.974;2024-01-06T13:56:01;38.70;;;17.50;;
77234;SDS011;66253;50.526;14.974;2024-01-06T13:58:30;35.40;;;16.70;;
77234;SDS011;66253;50.526;14.974;2024-01-06T14:00:59;37.80;;;18.00;;
77234;SDS011;66253;50.526;14.974;2024-01-06T14:03:28;32.80;;;16.80;;
77234;SDS011;66253;50.526;14.974;2024-01-06T14:05:56;35.30;;;17.20;;
77234;SDS011;66253;50.526;14.974;2024-01-06T14:08:25;35.90;;;21.20;;
77234;SDS011;66253;50.526;14.974;2024-01-06T14:10:54;35.10;;;17.40;;
77234;SDS011;66253;50.526;14.974;2024-01-06T14:13:22;32.40;;;17.20;;
77234;SDS011;66253;50.526;14.974;2024-01-06T14:15:51;31.30;;;15.00;;
77234;SDS011;66253;50.526;14.974;2024-01-06T14:18:19;30.70;;;15.40;;
77234;SDS011;66253;50.526;14.974;2024-01-06T14:20:48;23.40;;;13.40;;
77234;SDS011;66253;50.526;14.974;2024-01-06T14:23:16;25.40;;;13.90;;
77234;SDS011;66253;50.526;14.974;2024-01-06T14:25:45;32.80;;;14.00;;
77234;SDS011;66253;50.526;14.974;2024-01-06T14:28:13;23.20;;;11.30;;
77234;SDS011;66253;50.526;14.974;2024-01-06T14:30:41;22.30;;;10.50;;
77234;SDS011;66253;50.526;14.974;2024-01-06T14:33:10;19.20;;;8.50;;
77234;SDS011;66253;50.526;14.974;2024-01-06T14:35:38;20.00;;;9.00;;
77234;SDS011;66253;50.526;14.974;2024-01-06T14:38:07;24.80;;;11.40;;